Time;durP1;ratioP1;P1;durP2;ratioP2;P2;SDS_P1;SDS_P2;PMS_P1;PMS_P2;Temp;Humidity;BMP_temperature;BMP_pressure;BME280_temperature;BME280_humidity;BME280_pressure;Samples;Min_cycle;Max_cycle;Signal;HPM_P1;HPM_P2
2023/03/18 00:00:01;;;;;;;18.02;5.80;;;;;;;-144.73;67.47;54370.75;4993190;28;20036;-73
2023/03/18 00:02:26;;;;;;;9.85;4.90;;;;;;;-144.73;67.31;54335.88;5010118;28;20030;-73
2023/03/18 00:04:52;;;;;;;6.68;4.13;;;;;;;-144.73;67.83;54358.44;4997588;28;20030;-72
2023/03/18 00:07:18;;;;;;;9.90;4.80;;;;;;;-144.73;68.06;54395.38;5014729;28;20038;-73
2023/03/18 00:09:43;;;;;;;10.23;3.97;;;;;;;-144.73;67.70;54346.13;5012797;28;20033;-73
2023/03/18 00:12:09;;;;;;;9.18;4.53;;;;;;;-144.73;68.04;54346.13;4985407;28;20591;-73
2023/03/18 00:14:36;;;;;;;8.10;3.78;;;;;;;-144.73;67.76;54385.13;5004562;28;20025;-73
2023/03/18 00:17:02;;;;;;;8.68;4.13;;;;;;;-144.73;68.05;54348.19;4997019;28;20587;-72
2023/03/18 00:19:28;;;;;;;8.82;4.05;;;;;;;-144.73;68.62;54364.59;4997613;28;20022;-73
2023/03/18 00:21:54;;;;;;;14.52;4.03;;;;;;;-144.73;69.51;54415.91;5002491;28;20535;-72
2023/03/18 00:24:20;;;;;;;8.25;3.92;;;;;;;-144.73;70.01;54370.75;4977985;28;20026;-73
2023/03/18 00:26:46;;;;;;;11.30;4.78;;;;;;;-144.73;71.51;54358.44;4997152;28;20402;-72
2023/03/18 00:29:11;;;;;;;11.98;4.03;;;;;;;-144.73;71.56;54362.53;4997010;28;20037;-72
2023/03/18 00:31:39;;;;;;;8.43;4.10;;;;;;;-144.73;71.72;54360.50;4996981;28;20044;-72
2023/03/18 00:34:05;;;;;;;6.15;3.75;;;;;;;-144.73;72.53;54407.69;4984591;28;20029;-72
2023/03/18 00:36:31;;;;;;;11.40;4.28;;;;;;;-144.73;72.55;54350.22;4977649;28;20034;-72
2023/03/18 00:38:57;;;;;;;10.90;4.47;;;;;;;-144.73;72.78;54391.28;4995029;28;20022;-72
2023/03/18 00:41:24;;;;;;;8.30;3.67;;;;;;;-144.73;73.35;54407.69;4976786;28;20027;-72
2023/03/18 00:43:53;;;;;;;7.55;3.97;;;;;;;-144.73;74.03;54370.75;4977733;28;20085;-72
2023/03/18 00:46:38;;;;;;;7.90;4.03;;;;;;;-144.73;74.67;54374.84;4977399;28;20026;-72
2023/03/18 00:49:06;;;;;;;10.20;4.10;;;;;;;-144.73;75.05;54360.50;4977133;28;20125;-72
2023/03/18 00:51:34;;;;;;;12.40;3.70;;;;;;;-144.73;75.25;54346.13;5010977;28;20029;-72
2023/03/18 00:54:03;;;;;;;11.35;3.80;;;;;;;-144.73;75.98;54374.84;4996584;28;20081;-72
2023/03/18 00:56:30;;;;;;;7.30;3.80;;;;;;;-144.73;76.18;54391.28;4996527;28;20054;-73
2023/03/18 00:58:57;;;;;;;14.82;4.85;;;;;;;-144.73;76.66;54378.97;5013202;28;20033;-73
2023/03/18 01:01:23;;;;;;;7.15;3.92;;;;;;;-144.73;76.84;54378.97;4996308;28;20048;-73
2023/03/18 01:03:49;;;;;;;14.93;3.88;;;;;;;-144.73;77.42;54358.44;4996706;28;20049;-73
2023/03/18 01:06:21;;;;;;;11.32;4.15;;;;;;;-144.73;78.38;54346.13;5014340;28;20465;-73
2023/03/18 01:08:47;;;;;;;7.07;3.78;;;;;;;-144.73;78.30;54383.06;5034150;28;20494;-73
2023/03/18 01:11:13;;;;;;;8.55;4.32;;;;;;;-144.73;79.02;54370.75;5016068;28;20029;-73
2023/03/18 01:13:39;;;;;;;9.93;4.20;;;;;;;-144.73;80.24;54370.75;5016070;28;20033;-73
2023/03/18 01:16:05;;;;;;;11.93;4.10;;;;;;;-144.73;80.66;54374.84;5015980;28;20025;-73
2023/03/18 01:18:31;;;;;;;7.30;4.07;;;;;;;-144.73;81.56;54342.03;5025319;28;20040;-73
2023/03/18 01:20:57;;;;;;;8.27;3.95;;;;;;;-144.73;82.85;54362.53;4996548;28;20030;-73
2023/03/18 01:23:23;;;;;;;10.02;3.58;;;;;;;-144.73;82.91;54358.44;4995800;28;20026;-73
2023/03/18 01:25:49;;;;;;;8.88;3.83;;;;;;;-144.73;83.06;54350.22;4995965;28;20025;-74
2023/03/18 01:28:16;;;;;;;6.53;3.78;;;;;;;-144.73;82.82;54428.22;4995899;28;20034;-73
2023/03/18 01:30:41;;;;;;;14.55;4.55;;;;;;;-144.73;83.38;54362.53;4995814;28;20053;-73
2023/03/18 01:33:08;;;;;;;9.05;4.07;;;;;;;-144.73;84.50;54391.28;5012853;28;20037;-73
2023/03/18 01:35:34;;;;;;;14.95;5.53;;;;;;;-144.73;85.42;54354.34;4996311;28;20026;-73
2023/03/18 01:38:03;;;;;;;9.23;4.68;;;;;;;-144.73;85.53;54342.03;5012055;28;20084;-73
2023/03/18 01:40:31;;;;;;;9.20;4.40;;;;;;;-144.73;86.24;54370.75;4995991;28;20037;-73
2023/03/18 01:43:18;;;;;;;6.30;4.13;;;;;;;-144.73;85.75;54362.53;4995306;28;20044;-73
2023/03/18 01:45:49;;;;;;;13.02;4.10;;;;;;;-144.73;85.70;54374.84;5012102;28;20021;-73
2023/03/18 01:48:17;;;;;;;6.70;3.95;;;;;;;-144.73;85.41;54346.13;5014670;28;20076;-73
2023/03/18 01:50:45;;;;;;;7.47;3.97;;;;;;;-144.73;85.79;54424.13;4995913;28;20026;-74
2023/03/18 01:53:14;;;;;;;15.30;4.53;;;;;;;-144.73;85.32;54358.44;4995284;28;20117;-74
2023/03/18 01:55:40;;;;;;;6.88;3.53;;;;;;;-144.73;85.29;54376.91;4995666;28;20026;-72
2023/03/18 01:58:20;;;;;;;6.25;3.78;;;;;;;-144.73;85.45;54407.69;4995452;28;20037;-71
2023/03/18 02:00:53;;;;;;;7.80;3.63;;;;;;;-144.73;85.34;54378.97;5013235;28;20038;-72
2023/03/18 02:03:21;;;;;;;10.00;4.03;;;;;;;-144.73;85.05;54374.84;5012628;28;20034;-72
2023/03/18 02:05:49;;;;;;;11.45;4.20;;;;;;;-144.73;85.18;54391.28;5013180;28;20026;-72
2023/03/18 02:08:15;;;;;;;8.70;3.80;;;;;;;-144.73;84.19;54428.22;5012705;28;20111;-72
2023/03/18 02:10:41;;;;;;;13.30;3.45;;;;;;;-144.73;84.15;54358.44;5012705;28;20030;-72
2023/03/18 02:13:09;;;;;;;8.43;3.78;;;;;;;-144.73;84.50;54397.44;5012390;28;20041;-72
2023/03/18 02:15:44;;;;;;;8.45;4.00;;;;;;;-144.73;83.95;54362.53;5012793;28;20065;-72
2023/03/18 02:18:15;;;;;;;9.07;3.67;;;;;;;-144.73;83.21;54360.50;5012253;28;20041;-73
2023/03/18 02:20:57;;;;;;;9.07;3.93;;;;;;;-144.73;83.20;54354.34;4995264;28;20026;-72
2023/03/18 02:23:36;;;;;;;;;;;;;;;-144.73;83.29;54350.22;5011345;28;20458;-73
2023/03/18 02:26:32;;;;;;;10.02;3.35;;;;;;;-144.73;83.52;54407.69;4995057;28;19960;-73
2023/03/18 02:29:03;;;;;;;6.63;3.40;;;;;;;-144.73;83.19;54385.13;5012163;28;20042;-73
2023/03/18 02:31:30;;;;;;;9.38;3.33;;;;;;;-144.73;84.10;54366.66;4994045;28;20097;-73
2023/03/18 02:33:57;;;;;;;8.35;3.50;;;;;;;-144.73;84.58;54397.44;4994939;28;20034;-73
2023/03/18 02:36:27;;;;;;;10.02;3.47;;;;;;;-144.73;84.73;54378.97;5009829;28;20026;-73
2023/03/18 02:38:53;;;;;;;6.32;3.20;;;;;;;-144.73;84.53;54378.97;5031926;28;20025;-73
2023/03/18 02:41:28;;;;;;;7.40;3.50;;;;;;;-144.73;84.53;54407.69;5014000;28;20025;-73
2023/03/18 02:43:54;;;;;;;5.05;3.30;;;;;;;-144.73;85.41;54381.00;5032135;28;20032;-73
2023/03/18 02:46:45;;;;;;;7.50;3.58;;;;;;;-144.73;85.37;54366.66;5014011;28;20025;-73
2023/03/18 02:49:12;;;;;;;9.40;3.42;;;;;;;-144.73;86.13;54383.06;5014671;28;20044;-73
2023/03/18 02:51:38;;;;;;;9.90;3.75;;;;;;;-144.73;86.25;54370.75;4996055;28;20566;-73
2023/03/18 02:54:17;;;;;;;8.13;3.85;;;;;;;-144.73;86.18;54370.75;4994743;28;20048;-73
2023/03/18 02:56:43;;;;;;;13.20;3.88;;;;;;;-144.73;86.72;54395.38;4994136;28;20116;-73
2023/03/18 02:59:10;;;;;;;9.57;3.95;;;;;;;-144.73;86.78;54383.06;4994387;28;20065;-73
2023/03/18 03:01:38;;;;;;;12.82;4.40;;;;;;;-144.73;86.22;54407.69;4994168;28;20030;-73
2023/03/18 03:04:05;;;;;;;12.68;4.47;;;;;;;-144.73;86.43;54397.44;4994519;28;20026;-73
2023/03/18 03:06:31;;;;;;;16.55;3.92;;;;;;;-144.73;86.40;54381.00;5010310;28;20033;-73
2023/03/18 03:08:57;;;;;;;8.82;4.43;;;;;;;-144.73;86.25;54354.34;4994616;28;20025;-73
2023/03/18 03:11:23;;;;;;;10.13;3.90;;;;;;;-144.73;86.91;54362.53;4993973;28;20030;-73
2023/03/18 03:13:49;;;;;;;7.65;3.95;;;;;;;-144.73;85.53;54407.69;4994165;28;20030;-73
2023/03/18 03:16:18;;;;;;;11.40;4.13;;;;;;;-144.73;85.90;54393.34;5010065;28;20028;-73
2023/03/18 03:18:43;;;;;;;10.57;3.95;;;;;;;-144.73;87.43;54407.69;5014371;28;20057;-73
2023/03/18 03:21:11;;;;;;;8.93;4.80;;;;;;;-144.73;87.83;54372.81;5030979;28;20092;-73
2023/03/18 03:23:38;;;;;;;8.50;4.35;;;;;;;-144.73;88.06;54374.84;5031653;28;20064;-73
2023/03/18 03:26:04;;;;;;;10.00;3.78;;;;;;;-144.73;87.41;54370.75;5013280;28;20116;-73
2023/03/18 03:28:33;;;;;;;8.30;4.03;;;;;;;-144.73;87.96;54362.53;5031664;28;20029;-74
2023/03/18 03:30:59;;;;;;;8.70;4.43;;;;;;;-144.73;87.87;54383.06;5031313;28;20037;-73
2023/03/18 03:33:26;;;;;;;8.40;4.28;;;;;;;-144.73;88.67;54428.22;5013267;28;20033;-74
2023/03/18 03:35:53;;;;;;;15.30;4.82;;;;;;;-144.73;89.00;54387.19;5013920;28;20021;-73
2023/03/18 03:38:19;;;;;;;15.18;4.57;;;;;;;-144.73;90.10;54407.69;5030949;28;20061;-74
2023/03/18 03:40:46;;;;;;;11.93;4.40;;;;;;;-144.73;90.97;54348.19;5013784;28;20025;-74
2023/03/18 03:43:13;;;;;;;9.82;4.03;;;;;;;-144.73;90.64;54354.34;5013272;28;20040;-73
2023/03/18 03:45:40;;;;;;;11.10;3.97;;;;;;;-144.73;90.53;54399.50;5013646;28;20028;-73
2023/03/18 03:48:07;;;;;;;8.45;4.13;;;;;;;-144.73;90.58;54385.13;5030622;28;20043;-73
2023/03/18 03:50:32;;;;;;;11.00;3.63;;;;;;;-144.73;91.75;54370.75;5031342;28;20029;-73
2023/03/18 03:52:57;;;;;;;12.90;4.50;;;;;;;-144.73;92.88;54407.69;5003490;28;20383;-74
2023/03/18 03:55:23;;;;;;;8.73;4.43;;;;;;;-144.73;93.39;54381.00;5013487;28;20055;-74
2023/03/18 03:57:50;;;;;;;11.85;4.70;;;;;;;-144.73;94.07;54368.69;5012975;28;20049;-74
2023/03/18 04:00:19;;;;;;;9.60;4.32;;;;;;;-144.73;94.32;54378.97;5013575;28;20037;-73
2023/03/18 04:02:45;;;;;;;7.78;4.13;;;;;;;-144.73;94.63;54366.66;5012932;28;20612;-74
2023/03/18 04:05:13;;;;;;;12.00;4.57;;;;;;;-144.73;94.25;54354.34;5030979;28;20482;-74
2023/03/18 04:07:38;;;;;;;10.52;5.03;;;;;;;-144.73;96.17;54383.06;5013128;28;20440;-74
2023/03/18 04:10:05;;;;;;;7.03;4.68;;;;;;;-144.73;95.90;54362.53;5013463;28;20167;-74
2023/03/18 04:12:30;;;;;;;13.93;4.97;;;;;;;-144.73;95.86;54370.75;5030569;28;20068;-74
2023/03/18 04:14:56;;;;;;;12.65;4.90;;;;;;;-144.73;95.87;54407.69;5013595;28;20115;-73
2023/03/18 04:17:21;;;;;;;13.45;4.60;;;;;;;-144.73;95.91;54358.44;5012986;28;20029;-74
2023/03/18 04:19:47;;;;;;;12.60;4.82;;;;;;;-144.73;95.82;54366.66;5031092;28;20025;-74
2023/03/18 04:22:12;;;;;;;13.55;4.68;;;;;;;-144.73;95.79;54366.66;5012855;28;20029;-74
2023/03/18 04:24:38;;;;;;;10.85;5.55;;;;;;;-144.73;96.23;54383.06;5013464;28;20076;-74
2023/03/18 04:27:03;;;;;;;18.25;5.20;;;;;;;-144.73;96.08;54407.69;5030557;28;20034;-74
2023/03/18 04:29:29;;;;;;;9.63;4.90;;;;;;;-144.73;95.79;54358.44;5013405;28;20025;-74
2023/03/18 04:31:55;;;;;;;12.90;5.32;;;;;;;-144.73;96.63;54391.28;5012800;28;20038;-73
2023/03/18 04:34:21;;;;;;;10.75;4.95;;;;;;;-144.73;96.98;54407.69;5014752;28;20048;-74
2023/03/18 04:36:46;;;;;;;14.40;5.05;;;;;;;-144.73;96.99;54366.66;5016129;28;20041;-74
2023/03/18 04:39:12;;;;;;;14.55;5.72;;;;;;;-144.73;96.49;54358.44;5034779;28;20033;-74
2023/03/18 04:41:37;;;;;;;12.90;6.88;;;;;;;-144.73;96.37;54362.53;5016175;28;20038;-74
2023/03/18 04:44:03;;;;;;;15.85;6.25;;;;;;;-144.73;96.80;54370.75;5016605;28;20072;-74
2023/03/18 04:46:29;;;;;;;9.77;5.63;;;;;;;-144.73;96.84;54387.19;5016651;28;20041;-74
2023/03/18 04:48:55;;;;;;;14.05;6.03;;;;;;;-144.73;96.13;54407.69;5033987;28;20137;-74
2023/03/18 04:51:20;;;;;;;15.05;6.07;;;;;;;-144.73;96.09;54374.84;5015901;28;20128;-74
2023/03/18 04:53:45;;;;;;;11.30;6.15;;;;;;;-144.73;96.11;54333.81;5016277;28;20030;-74
2023/03/18 04:56:11;;;;;;;19.30;6.25;;;;;;;-144.73;95.87;54407.69;5016033;28;20026;-74
2023/03/18 04:58:37;;;;;;;19.50;6.57;;;;;;;-144.73;96.35;54395.38;5016327;28;20020;-74
2023/03/18 05:01:03;;;;;;;12.63;6.13;;;;;;;-144.73;96.65;54424.13;5016382;28;20032;-74
2023/03/18 05:03:29;;;;;;;12.45;5.68;;;;;;;-144.73;97.15;54358.44;5015839;28;20038;-74
2023/03/18 05:05:55;;;;;;;17.67;7.07;;;;;;;-144.73;96.86;54360.50;5016192;28;20033;-74
2023/03/18 05:08:21;;;;;;;18.90;6.75;;;;;;;-144.73;97.15;54407.69;5015815;28;20113;-74
2023/03/18 05:10:48;;;;;;;13.85;6.28;;;;;;;-144.73;97.49;54383.06;5015932;28;20179;-74
2023/03/18 05:13:15;;;;;;;11.23;6.03;;;;;;;-144.73;97.73;54411.81;5033508;28;20132;-74
2023/03/18 05:15:41;;;;;;;17.27;7.57;;;;;;;-144.73;97.62;54387.19;5033821;28;20108;-74
2023/03/18 05:18:07;;;;;;;17.73;7.50;;;;;;;-144.73;97.83;54407.69;5021241;28;20034;-74
2023/03/18 05:20:33;;;;;;;18.27;6.88;;;;;;;-144.73;98.18;54407.69;4996564;28;20030;-74
2023/03/18 05:22:58;;;;;;;20.63;7.68;;;;;;;-144.73;98.40;54378.97;5013492;28;20030;-74
2023/03/18 05:25:24;;;;;;;17.52;8.05;;;;;;;-144.73;98.63;54407.69;4996230;28;20069;-74
2023/03/18 05:27:49;;;;;;;17.05;7.88;;;;;;;-144.73;98.48;54333.81;5011660;28;20041;-74
2023/03/18 05:30:17;;;;;;;24.50;8.73;;;;;;;-144.73;98.46;54383.06;4996192;28;20029;-74
2023/03/18 05:32:43;;;;;;;17.52;8.55;;;;;;;-144.73;98.23;54354.34;4995689;28;20034;-74
2023/03/18 05:35:10;;;;;;;21.50;9.15;;;;;;;-144.73;98.15;54389.22;4996021;28;20022;-73
2023/03/18 05:37:36;;;;;;;22.42;9.07;;;;;;;-144.73;98.59;54407.69;5013215;28;20117;-72
2023/03/18 05:40:03;;;;;;;16.98;7.45;;;;;;;-144.73;99.06;54391.28;4996098;28;20053;-75
2023/03/18 05:42:28;;;;;;;20.15;9.57;;;;;;;-144.73;99.51;54374.84;5012840;28;20121;-74
2023/03/18 05:44:55;;;;;;;21.35;8.82;;;;;;;-144.73;99.53;54383.06;5012908;28;20554;-72
2023/03/18 05:47:21;;;;;;;19.38;8.63;;;;;;;-144.73;98.89;54420.00;4995298;28;20526;-72
2023/03/18 05:49:47;;;;;;;18.35;9.00;;;;;;;-144.73;99.51;54407.69;5011848;28;20018;-72
2023/03/18 05:52:12;;;;;;;19.42;8.38;;;;;;;-144.73;99.71;54399.50;4995381;28;20034;-74
2023/03/18 05:54:38;;;;;;;24.83;9.82;;;;;;;-144.73;99.36;54366.66;4995529;28;20021;-74
2023/03/18 05:57:03;;;;;;;28.40;9.32;;;;;;;-144.73;99.53;54383.06;4995503;28;20038;-74
2023/03/18 05:59:30;;;;;;;21.08;10.00;;;;;;;-144.73;98.97;54366.66;4995674;28;20034;-74
2023/03/18 06:01:56;;;;;;;27.23;10.60;;;;;;;-144.73;99.04;54395.38;4994725;28;20132;-74
2023/03/18 06:04:21;;;;;;;31.83;12.32;;;;;;;-144.73;99.91;54385.13;4996175;28;20109;-73
2023/03/18 06:06:48;;;;;;;26.00;11.02;;;;;;;-144.73;100.00;54383.06;5012796;28;20073;-73
2023/03/18 06:09:14;;;;;;;30.45;11.73;;;;;;;-144.73;99.47;54430.28;4995802;28;20076;-73
2023/03/18 06:11:40;;;;;;;22.63;10.88;;;;;;;-144.73;99.35;54399.50;5011464;28;20034;-73
2023/03/18 06:14:06;;;;;;;23.33;11.30;;;;;;;-144.73;99.57;54397.44;5012900;28;20026;-73
2023/03/18 06:16:33;;;;;;;29.23;11.15;;;;;;;-144.73;98.83;54387.19;5012763;28;20384;-73
2023/03/18 06:19:00;;;;;;;29.20;12.77;;;;;;;-144.73;99.14;54395.38;5012563;28;20037;-73
2023/03/18 06:21:26;;;;;;;30.95;13.05;;;;;;;-144.73;99.36;54383.06;4994494;28;20106;-73
2023/03/18 06:23:53;;;;;;;27.55;11.98;;;;;;;-144.73;99.18;54428.22;4995136;28;20470;-73
2023/03/18 06:26:19;;;;;;;33.35;12.88;;;;;;;-144.73;99.14;54383.06;5011072;28;20052;-73
2023/03/18 06:28:44;;;;;;;36.65;12.98;;;;;;;-144.73;98.87;54362.53;4995287;28;20029;-73
2023/03/18 06:31:11;;;;;;;28.02;12.70;;;;;;;-144.73;99.24;54376.91;4994585;28;20030;-73
2023/03/18 06:33:37;;;;;;;24.92;12.98;;;;;;;-144.73;99.55;54407.69;4995023;28;20036;-73
2023/03/18 06:36:03;;;;;;;40.42;18.08;;;;;;;-144.73;99.36;54383.06;4995012;28;20136;-73
2023/03/18 06:38:30;;;;;;;27.48;13.45;;;;;;;-144.73;99.48;54366.66;4994283;28;20511;-73
2023/03/18 06:40:56;;;;;;;25.83;12.55;;;;;;;-144.73;100.00;54348.19;5012377;28;20032;-73
2023/03/18 06:43:21;;;;;;;27.20;13.70;;;;;;;-144.73;100.00;54424.13;4994266;28;20034;-73
2023/03/18 06:45:47;;;;;;;26.58;13.93;;;;;;;-144.73;100.00;54395.38;4994765;28;20029;-73
2023/03/18 06:48:12;;;;;;;25.35;13.32;;;;;;;-144.73;100.00;54354.34;5011803;28;20499;-73
2023/03/18 06:50:38;;;;;;;24.42;13.85;;;;;;;-144.73;99.93;54399.50;4994562;28;20112;-74
2023/03/18 06:53:04;;;;;;;27.33;14.38;;;;;;;-144.73;99.73;54368.69;5011333;28;20376;-73
2023/03/18 06:55:30;;;;;;;26.05;14.20;;;;;;;-144.73;99.30;54432.31;5010777;28;20029;-74
2023/03/18 06:57:56;;;;;;;28.88;12.65;;;;;;;-144.73;98.41;54374.84;4993655;28;20041;-74
2023/03/18 07:00:23;;;;;;;27.67;15.32;;;;;;;-144.73;97.56;54368.69;4995067;28;20040;-74
2023/03/18 07:02:49;;;;;;;33.20;13.48;;;;;;;-144.73;98.02;54424.13;4994151;28;20089;-74
2023/03/18 07:05:15;;;;;;;22.67;13.68;;;;;;;-144.73;98.10;54432.31;5011006;28;20026;-73
2023/03/18 07:07:42;;;;;;;32.60;14.30;;;;;;;-144.73;97.45;54374.84;4994063;28;20038;-74
2023/03/18 07:10:16;;;;;;;30.17;14.10;;;;;;;-144.73;97.13;54366.66;4994261;28;20452;-74
2023/03/18 07:12:41;;;;;;;26.13;13.00;;;;;;;-144.73;95.97;54348.19;4994045;28;20034;-74
2023/03/18 07:15:07;;;;;;;32.58;13.80;;;;;;;-144.73;96.83;54378.97;4994178;28;20022;-74
2023/03/18 07:17:32;;;;;;;29.30;14.00;;;;;;;-144.73;97.99;54424.13;5010222;28;20060;-74
2023/03/18 07:19:58;;;;;;;31.05;14.65;;;;;;;-144.73;98.42;54432.31;4994281;28;20028;-73
2023/03/18 07:22:23;;;;;;;29.20;12.68;;;;;;;-144.73;97.60;54448.75;4993841;28;20038;-74
2023/03/18 07:24:50;;;;;;;25.23;14.18;;;;;;;-144.73;97.60;54383.06;4994131;28;20033;-74
2023/03/18 07:27:15;;;;;;;29.00;14.65;;;;;;;-144.73;95.95;54368.69;4993308;28;20072;-74
2023/03/18 07:29:41;;;;;;;25.27;13.15;;;;;;;-144.73;95.69;54424.13;5012051;28;20025;-74
2023/03/18 07:32:07;;;;;;;32.30;14.65;;;;;;;-144.73;95.34;54354.34;5013275;28;20026;-73
2023/03/18 07:34:32;;;;;;;30.27;13.57;;;;;;;-144.73;95.24;54409.75;5014027;28;20116;-74
2023/03/18 07:36:57;;;;;;;25.58;12.93;;;;;;;-144.73;95.29;54370.75;5013628;28;20033;-71
2023/03/18 07:39:23;;;;;;;31.27;13.15;;;;;;;-144.73;95.77;54399.50;5011993;28;20040;-72
2023/03/18 07:41:48;;;;;;;29.27;14.15;;;;;;;-144.73;95.08;54383.06;4996230;28;20034;-72
2023/03/18 07:44:14;;;;;;;29.77;14.10;;;;;;;-144.73;94.98;54374.84;5010720;28;20122;-72
2023/03/18 07:46:40;;;;;;;26.85;14.18;;;;;;;-144.73;94.35;54368.69;4994411;28;20034;-72
2023/03/18 07:49:05;;;;;;;29.67;14.95;;;;;;;-144.73;94.62;54411.81;5010701;28;20056;-72
2023/03/18 07:51:31;;;;;;;26.35;13.43;;;;;;;-144.73;92.97;54420.00;4997287;28;20088;-72
2023/03/18 07:53:57;;;;;;;32.05;14.48;;;;;;;-144.73;94.07;54395.38;4999330;28;20030;-72
2023/03/18 07:56:23;;;;;;;31.48;14.45;;;;;;;-144.73;93.19;54358.44;4992784;28;20052;-72
2023/03/18 07:58:48;;;;;;;29.10;14.23;;;;;;;-144.73;93.60;54383.06;5002379;28;20029;-72
2023/03/18 08:01:17;;;;;;;30.33;13.90;;;;;;;-144.73;92.03;54370.75;5006331;28;20110;-72
2023/03/18 08:03:43;;;;;;;26.70;12.60;;;;;;;-144.73;92.78;54399.50;5010699;28;20025;-72
2023/03/18 08:06:10;;;;;;;33.92;14.73;;;;;;;-144.73;91.89;54411.81;5006153;28;20044;-73
2023/03/18 08:08:36;;;;;;;32.05;12.95;;;;;;;-144.73;92.15;54415.91;5007133;28;20033;-72
2023/03/18 08:11:01;;;;;;;37.80;13.70;;;;;;;-144.73;91.07;54407.69;5016775;28;20042;-72
2023/03/18 08:13:27;;;;;;;35.72;14.00;;;;;;;-144.73;91.00;54362.53;4986502;28;20042;-71
2023/03/18 08:15:54;;;;;;;24.88;13.20;;;;;;;-144.73;91.10;54395.38;4983858;28;20339;-72
2023/03/18 08:18:21;;;;;;;27.13;13.88;;;;;;;-144.73;91.42;54395.38;5006885;28;20030;-72
2023/03/18 08:20:47;;;;;;;27.30;12.88;;;;;;;-144.73;91.11;54428.22;4999202;28;20100;-72
2023/03/18 08:23:13;;;;;;;30.90;13.70;;;;;;;-144.73;90.85;54383.06;4991506;28;20113;-72
2023/03/18 08:25:40;;;;;;;25.23;13.57;;;;;;;-144.73;90.29;54407.69;4999545;28;20077;-71
2023/03/18 08:28:06;;;;;;;26.70;13.00;;;;;;;-144.73;90.25;54358.44;5003207;28;20095;-72
2023/03/18 08:30:33;;;;;;;25.42;13.18;;;;;;;-144.73;89.84;54358.44;5006364;28;20025;-71
2023/03/18 08:32:58;;;;;;;31.95;13.40;;;;;;;-144.73;90.82;54366.66;5005702;28;20510;-71
2023/03/18 08:35:24;;;;;;;30.15;14.15;;;;;;;-144.73;90.83;54407.69;4990856;28;20057;-72
2023/03/18 08:37:50;;;;;;;31.92;13.55;;;;;;;-144.73;90.95;54424.13;4988595;28;20132;-71
2023/03/18 08:40:16;;;;;;;31.63;13.50;;;;;;;-144.73;91.10;54360.50;4991389;28;20037;-72
2023/03/18 08:42:42;;;;;;;28.67;14.25;;;;;;;-144.73;90.86;54374.84;4992520;28;20048;-71
2023/03/18 08:45:08;;;;;;;29.58;13.65;;;;;;;-144.73;90.96;54370.75;4990347;28;20017;-72
2023/03/18 08:47:33;;;;;;;29.30;13.40;;;;;;;-144.73;90.65;54387.19;5005466;28;20065;-72
2023/03/18 08:49:59;;;;;;;26.77;13.13;;;;;;;-144.73;91.07;54407.69;4989763;28;20048;-74
2023/03/18 08:52:24;;;;;;;21.27;12.38;;;;;;;-144.73;91.87;54387.19;5010405;28;20050;-72
2023/03/18 08:54:50;;;;;;;26.25;14.32;;;;;;;-144.73;92.20;54358.44;4996247;28;20032;-72
2023/03/18 08:57:15;;;;;;;31.60;15.07;;;;;;;-144.73;91.66;54350.22;5001063;28;20038;-72
2023/03/18 08:59:40;;;;;;;28.30;12.88;;;;;;;-144.73;91.34;54370.75;4990579;28;20033;-72
2023/03/18 09:02:07;;;;;;;27.52;13.88;;;;;;;-144.73;90.64;54415.91;5007244;28;20513;-72
2023/03/18 09:04:32;;;;;;;25.83;14.15;;;;;;;-144.73;90.88;54358.44;4989709;28;20029;-72
2023/03/18 09:06:59;;;;;;;27.05;13.88;;;;;;;-144.73;91.25;54378.97;4988049;28;20037;-73
2023/03/18 09:09:25;;;;;;;30.90;14.68;;;;;;;-144.73;91.58;54432.31;4990219;28;20042;-72
2023/03/18 09:11:50;;;;;;;25.70;12.27;;;;;;;-144.73;92.13;54385.13;4988057;28;20061;-72
2023/03/18 09:14:16;;;;;;;29.23;13.05;;;;;;;-144.73;92.16;54383.06;4995534;28;20030;-72
2023/03/18 09:16:41;;;;;;;27.50;14.25;;;;;;;-144.73;92.23;54383.06;4987225;28;20038;-72
2023/03/18 09:19:06;;;;;;;26.90;14.57;;;;;;;-144.73;91.88;54387.19;5006376;28;20021;-72
2023/03/18 09:21:32;;;;;;;35.58;14.63;;;;;;;-144.73;92.02;54383.06;5000634;28;20038;-72
2023/03/18 09:23:57;;;;;;;28.02;14.25;;;;;;;-144.73;92.10;54415.91;5006367;28;20421;-72
2023/03/18 09:26:23;;;;;;;29.02;13.57;;;;;;;-144.73;91.34;54366.66;5007552;28;20042;-72
2023/03/18 09:28:48;;;;;;;31.00;14.30;;;;;;;-144.73;91.39;54395.38;4997980;28;20045;-73
2023/03/18 09:31:14;;;;;;;23.42;13.07;;;;;;;-144.73;91.83;54407.69;4993873;28;20053;-72
2023/03/18 09:33:41;;;;;;;32.33;15.23;;;;;;;-144.73;91.81;54378.97;5006519;28;20108;-72
2023/03/18 09:36:08;;;;;;;22.98;13.13;;;;;;;-144.73;91.08;54424.13;4987879;28;20044;-73
2023/03/18 09:38:34;;;;;;;26.30;13.77;;;;;;;-144.73;91.56;54387.19;4989052;28;20793;-72
2023/03/18 09:41:41;;;;;;;34.97;14.98;;;;;;;-144.73;92.06;54395.38;5006266;28;20037;-72
2023/03/18 09:44:24;;;;;;;23.02;13.38;;;;;;;-144.73;92.31;54391.28;4998012;28;20579;-73
2023/03/18 09:47:01;;;;;;;26.55;14.02;;;;;;;-144.73;92.16;54346.13;5006548;28;20389;-72
2023/03/18 09:49:27;;;;;;;24.90;14.15;;;;;;;-144.73;92.08;54387.19;5004068;28;20064;-72
2023/03/18 09:52:12;;;;;;;25.92;12.93;;;;;;;-144.73;92.11;54391.28;5011805;28;20093;-72
2023/03/18 09:54:52;;;;;;;24.60;14.30;;;;;;;-144.73;92.26;54387.19;5004048;28;20112;-72
2023/03/18 09:57:23;;;;;;;32.67;14.43;;;;;;;-144.73;92.66;54374.84;4990848;28;20048;-70
2023/03/18 09:59:59;;;;;;;26.50;14.48;;;;;;;-144.73;92.50;54411.81;4994393;28;20034;-71
2023/03/18 10:02:39;;;;;;;28.65;14.23;;;;;;;-144.73;92.08;54383.06;4988335;28;20129;-73
2023/03/18 10:05:15;;;;;;;33.45;13.57;;;;;;;-144.73;91.88;54339.97;4994314;28;20109;-73
2023/03/18 10:07:43;;;;;;;24.00;12.48;;;;;;;-144.73;92.00;54387.19;4988972;28;20042;-73
2023/03/18 10:10:40;;;;;;;32.30;13.30;;;;;;;-144.73;90.49;54358.44;5006066;28;20018;-73
2023/03/18 10:13:21;;;;;;;25.98;13.15;;;;;;;-144.73;88.60;54370.75;4992984;28;20041;-73
2023/03/18 10:15:53;;;;;;;30.85;14.15;;;;;;;-144.73;89.41;54378.97;4988365;28;20057;-70
2023/03/18 10:18:36;;;;;;;18.17;12.10;;;;;;;-144.73;89.08;54391.28;5005964;28;20038;-73
2023/03/18 10:21:31;;;;;;;27.00;12.02;;;;;;;-144.73;88.73;54366.66;4988606;28;20032;-71
2023/03/18 10:24:30;;;;;;;23.20;12.45;;;;;;;-144.73;88.31;54407.69;4993808;28;20035;-71
2023/03/18 10:27:18;;;;;;;23.00;12.38;;;;;;;-144.73;89.47;54358.44;4979830;28;20042;-71
2023/03/18 10:29:59;;;;;;;28.38;12.48;;;;;;;-144.73;89.03;54370.75;4988471;28;20083;-71
2023/03/18 10:32:44;;;;;;;23.85;12.13;;;;;;;-144.73;89.66;54424.13;5005619;28;20488;-71
2023/03/18 10:35:36;;;;;;;21.83;11.43;;;;;;;-144.73;89.27;54399.50;4982728;28;20021;-71
2023/03/18 10:38:09;;;;;;;22.42;12.18;;;;;;;-144.73;89.72;54407.69;4991126;28;20118;-74
2023/03/18 10:40:38;;;;;;;19.23;12.15;;;;;;;-144.73;89.59;54409.75;4984403;28;20041;-71
2023/03/18 10:43:18;;;;;;;29.92;13.50;;;;;;;-144.73;89.99;54432.31;5012875;28;20299;-71
2023/03/18 10:45:47;;;;;;;23.92;12.13;;;;;;;-144.73;89.24;54407.69;4994486;28;20061;-73
2023/03/18 10:48:47;;;;;;;19.80;10.57;;;;;;;-144.73;89.10;54378.97;4996516;28;20104;-71
2023/03/18 10:51:27;;;;;;;20.08;11.35;;;;;;;-144.73;89.58;54387.19;4987479;28;20092;-71
2023/03/18 10:54:20;;;;;;;23.45;12.27;;;;;;;-144.73;88.34;54374.84;4987507;28;20022;-71
2023/03/18 10:56:45;;;;;;;23.80;11.80;;;;;;;-144.73;88.95;54415.91;4984305;28;20093;-72
2023/03/18 10:59:15;;;;;;;21.20;12.65;;;;;;;-144.73;88.59;54385.13;5004729;28;20025;-71
2023/03/18 11:01:45;;;;;;;24.05;12.65;;;;;;;-144.73;87.76;54360.50;5002885;28;20026;-71
2023/03/18 11:04:14;;;;;;;22.75;13.52;;;;;;;-144.73;87.45;54378.97;4982991;28;20041;-71
2023/03/18 11:07:00;;;;;;;21.88;11.73;;;;;;;-144.73;86.75;54409.75;4986533;28;20048;-71
2023/03/18 11:09:41;;;;;;;23.05;12.80;;;;;;;-144.73;85.75;54413.84;4988430;28;20025;-72
2023/03/18 11:12:15;;;;;;;23.20;12.45;;;;;;;-144.73;86.75;54346.13;4996306;28;20033;-71